Time;durP1;ratioP1;P1;durP2;ratioP2;P2;SDS_P1;SDS_P2;PMS_P1;PMS_P2;Temp;Humidity;BMP_temperature;BMP_pressure;BME280_temperature;BME280_humidity;BME280_pressure;Samples;Min_cycle;Max_cycle;Signal;HPM_P1;HPM_P2
2024/01/13 00:02:21;;;;;;;25.80;10.67;;;0.10;99.90;;;;;;5094376;28;20034;-75
2024/01/13 00:04:47;;;;;;;26.77;10.67;;;0.10;99.90;;;;;;5094717;28;20019;-75
2024/01/13 00:07:12;;;;;;;27.60;10.97;;;0.10;99.90;;;;;;5098352;28;20433;-75
2024/01/13 00:09:38;;;;;;;25.30;9.97;;;0.10;99.90;;;;;;5116332;28;20027;-75
2024/01/13 00:12:04;;;;;;;28.70;10.47;;;0.10;99.90;;;;;;5098246;28;20089;-75
2024/01/13 00:14:30;;;;;;;24.97;11.13;;;0.00;99.90;;;;;;5097978;28;20057;-75
2024/01/13 00:16:55;;;;;;;21.57;9.50;;;0.10;99.90;;;;;;5116701;28;20016;-75
2024/01/13 00:19:21;;;;;;;23.67;9.00;;;0.10;99.90;;;;;;5098006;28;20020;-75
2024/01/13 00:21:46;;;;;;;23.93;10.03;;;0.10;99.90;;;;;;5098527;28;20432;-75
2024/01/13 00:24:12;;;;;;;19.60;9.20;;;0.10;99.90;;;;;;5116497;28;20026;-74
2024/01/13 00:26:38;;;;;;;27.13;10.00;;;0.10;99.90;;;;;;5116074;28;20062;-75
2024/01/13 00:29:03;;;;;;;22.60;9.63;;;0.10;99.90;;;;;;5116621;28;20027;-75
2024/01/13 00:31:29;;;;;;;23.77;10.40;;;0.10;99.90;;;;;;5115967;28;20099;-75
2024/01/13 00:33:54;;;;;;;23.37;9.53;;;0.20;99.90;;;;;;5098148;28;20024;-75
2024/01/13 00:36:20;;;;;;;24.90;10.03;;;0.10;99.90;;;;;;5097625;28;20449;-75
2024/01/13 00:38:45;;;;;;;26.70;9.53;;;0.10;99.90;;;;;;5098150;28;20372;-75
2024/01/13 00:41:11;;;;;;;28.37;9.87;;;0.10;99.90;;;;;;5097688;28;20067;-75
2024/01/13 00:43:37;;;;;;;24.47;9.57;;;0.10;99.90;;;;;;5097510;28;20126;-75
2024/01/13 00:46:04;;;;;;;27.33;8.73;;;0.10;99.90;;;;;;5097822;28;20165;-75
2024/01/13 00:48:29;;;;;;;25.53;9.67;;;0.10;99.90;;;;;;5097257;28;20028;-75
2024/01/13 00:50:55;;;;;;;19.13;9.17;;;0.10;99.90;;;;;;5097950;28;20019;-75
2024/01/13 00:53:20;;;;;;;25.60;10.37;;;0.20;99.90;;;;;;5097286;28;20016;-76
2024/01/13 00:55:46;;;;;;;25.80;9.47;;;0.20;99.90;;;;;;5097717;28;20024;-75
2024/01/13 00:58:12;;;;;;;23.30;9.27;;;0.10;99.90;;;;;;5097653;28;20027;-75
2024/01/13 01:00:38;;;;;;;23.23;9.17;;;0.10;99.90;;;;;;5097257;28;20456;-75
2024/01/13 01:03:04;;;;;;;23.60;10.43;;;0.10;99.90;;;;;;5097615;28;20015;-75
2024/01/13 01:05:29;;;;;;;24.53;9.57;;;0.10;99.90;;;;;;5097019;28;20023;-75
2024/01/13 01:07:55;;;;;;;19.53;8.87;;;0.10;99.90;;;;;;5097397;28;20463;-75
2024/01/13 01:10:20;;;;;;;20.93;9.03;;;0.10;99.90;;;;;;5096785;28;20106;-83
2024/01/13 01:12:46;;;;;;;23.83;9.37;;;0.10;99.90;;;;;;5115685;28;20031;-75
2024/01/13 01:15:11;;;;;;;25.40;8.87;;;0.20;99.90;;;;;;5097348;28;20475;-74
2024/01/13 01:17:37;;;;;;;25.13;9.40;;;0.20;99.90;;;;;;5094819;28;20372;-74
2024/01/13 01:20:03;;;;;;;22.83;8.90;;;0.10;99.90;;;;;;5115603;28;20069;-74
2024/01/13 01:22:29;;;;;;;23.57;9.73;;;0.20;99.90;;;;;;5115044;28;20023;-74
2024/01/13 01:24:54;;;;;;;23.07;9.93;;;0.10;99.90;;;;;;5115211;28;20027;-75
2024/01/13 01:27:20;;;;;;;21.57;8.93;;;0.10;99.90;;;;;;5115023;28;20027;-74
2024/01/13 01:29:45;;;;;;;24.87;9.73;;;0.10;99.90;;;;;;5096560;28;20112;-75
2024/01/13 01:32:11;;;;;;;19.63;8.30;;;0.10;99.90;;;;;;5097015;28;20042;-74
2024/01/13 01:34:36;;;;;;;22.37;10.30;;;0.20;99.90;;;;;;5096495;28;20165;-75
2024/01/13 01:37:02;;;;;;;22.13;8.97;;;0.10;99.90;;;;;;5096844;28;20453;-75
2024/01/13 01:39:27;;;;;;;22.77;8.20;;;0.10;99.90;;;;;;5096550;28;20267;-75
2024/01/13 01:41:53;;;;;;;21.73;8.93;;;0.10;99.90;;;;;;5115070;28;20524;-75
2024/01/13 01:44:19;;;;;;;23.63;9.47;;;0.10;99.90;;;;;;5096676;28;20384;-75
2024/01/13 01:46:46;;;;;;;24.83;9.43;;;0.10;99.90;;;;;;5096212;28;20106;-75
2024/01/13 01:49:14;;;;;;;22.73;9.17;;;0.10;99.90;;;;;;5096579;28;20441;-74
2024/01/13 01:51:42;;;;;;;21.67;9.03;;;0.00;99.90;;;;;;5114338;28;20020;-75
2024/01/13 01:54:07;;;;;;;23.27;9.97;;;0.00;99.90;;;;;;5096555;28;20437;-75
2024/01/13 01:56:34;;;;;;;19.53;8.60;;;0.00;99.90;;;;;;5096022;28;20026;-76
2024/01/13 01:59:01;;;;;;;23.33;8.77;;;-0.10;99.90;;;;;;5096498;28;20516;-76
2024/01/13 02:01:30;;;;;;;22.97;10.17;;;-0.10;99.90;;;;;;5114268;28;20154;-75
2024/01/13 02:03:56;;;;;;;20.07;8.53;;;0.00;99.90;;;;;;5096396;28;20016;-75
2024/01/13 02:06:22;;;;;;;25.07;9.10;;;0.00;99.90;;;;;;5114262;28;20035;-75
2024/01/13 02:08:48;;;;;;;25.00;9.47;;;-0.10;99.90;;;;;;5095809;28;20011;-74
2024/01/13 02:11:13;;;;;;;18.90;8.90;;;0.00;99.90;;;;;;5096048;28;20024;-75
2024/01/13 02:13:40;;;;;;;23.80;8.20;;;0.00;99.90;;;;;;5095855;28;20027;-75
2024/01/13 02:16:10;;;;;;;20.50;9.27;;;0.00;99.90;;;;;;5114658;28;20031;-75
2024/01/13 02:18:35;;;;;;;24.57;8.93;;;0.00;99.90;;;;;;5095598;28;20031;-75
2024/01/13 02:21:01;;;;;;;26.30;9.43;;;-0.10;99.90;;;;;;5114056;28;20417;-75
2024/01/13 02:23:27;;;;;;;23.03;9.57;;;0.00;99.90;;;;;;5114142;28;20110;-76
2024/01/13 02:25:52;;;;;;;29.43;9.67;;;0.00;99.90;;;;;;5095893;28;20028;-76
2024/01/13 02:28:18;;;;;;;23.43;9.37;;;0.00;99.90;;;;;;5095636;28;20118;-76
2024/01/13 02:30:44;;;;;;;24.47;9.13;;;0.00;99.90;;;;;;5095635;28;20049;-76
2024/01/13 02:33:09;;;;;;;21.33;9.20;;;0.00;99.90;;;;;;5095940;28;20016;-75
2024/01/13 02:35:35;;;;;;;22.80;8.27;;;0.00;99.90;;;;;;5095362;28;20034;-75
2024/01/13 02:38:01;;;;;;;21.73;8.77;;;-0.10;99.90;;;;;;5095451;28;20019;-75
2024/01/13 02:40:26;;;;;;;26.17;9.07;;;-0.10;99.90;;;;;;5113148;28;20044;-76
2024/01/13 02:42:52;;;;;;;22.33;8.53;;;-0.10;99.90;;;;;;5095450;28;20488;-75
2024/01/13 02:45:18;;;;;;;25.27;8.60;;;-0.20;99.90;;;;;;5113967;28;20024;-75
2024/01/13 02:47:46;;;;;;;21.07;8.43;;;-0.10;99.90;;;;;;5095143;28;20440;-75
2024/01/13 02:50:13;;;;;;;23.93;8.63;;;-0.20;99.90;;;;;;5095522;28;20023;-75
2024/01/13 02:52:40;;;;;;;21.20;8.17;;;-0.10;99.90;;;;;;5095079;28;20370;-75
2024/01/13 02:55:06;;;;;;;22.23;8.17;;;-0.10;99.90;;;;;;5095443;28;20030;-75
2024/01/13 02:57:32;;;;;;;23.07;9.00;;;-0.10;99.90;;;;;;5094940;28;20053;-75
2024/01/13 02:59:57;;;;;;;23.60;8.53;;;-0.20;99.90;;;;;;5113868;28;20034;-75
2024/01/13 03:02:23;;;;;;;26.43;9.60;;;-0.20;99.90;;;;;;5095377;28;20023;-75
2024/01/13 03:04:49;;;;;;;22.03;8.57;;;-0.20;99.90;;;;;;5113212;28;20020;-75
2024/01/13 03:07:14;;;;;;;28.60;8.33;;;-0.10;99.90;;;;;;5095371;28;20023;-75
2024/01/13 03:09:40;;;;;;;23.07;9.50;;;-0.10;99.90;;;;;;5094842;28;20027;-75
2024/01/13 03:12:06;;;;;;;21.30;9.00;;;-0.20;99.90;;;;;;5113667;28;20027;-75
2024/01/13 03:14:32;;;;;;;22.90;8.87;;;-0.20;99.90;;;;;;5112631;28;20042;-75
2024/01/13 03:16:57;;;;;;;19.83;8.03;;;-0.20;99.90;;;;;;5095404;28;20019;-75
2024/01/13 03:19:24;;;;;;;22.93;8.53;;;-0.20;99.90;;;;;;5113622;28;20059;-75
2024/01/13 03:21:49;;;;;;;24.83;9.30;;;-0.20;99.90;;;;;;5094628;28;20024;-75
2024/01/13 03:24:15;;;;;;;25.27;9.60;;;-0.20;99.90;;;;;;5095183;28;20091;-75
2024/01/13 03:26:41;;;;;;;21.50;8.67;;;-0.30;99.90;;;;;;5094668;28;20019;-75
2024/01/13 03:29:06;;;;;;;25.03;9.67;;;-0.20;99.90;;;;;;5113547;28;20465;-75
2024/01/13 03:31:32;;;;;;;23.03;8.37;;;-0.30;99.90;;;;;;5112692;28;20110;-76
2024/01/13 03:33:57;;;;;;;22.83;9.40;;;-0.30;99.90;;;;;;5094992;28;20360;-75
2024/01/13 03:36:23;;;;;;;22.27;8.63;;;-0.30;99.90;;;;;;5112891;28;20026;-74
2024/01/13 03:38:48;;;;;;;22.90;9.03;;;-0.30;99.90;;;;;;5094589;28;20273;-75
2024/01/13 03:41:17;;;;;;;19.80;8.27;;;-0.30;99.90;;;;;;5096912;28;20050;-75
2024/01/13 03:43:42;;;;;;;23.13;8.50;;;-0.30;99.90;;;;;;5116907;28;20027;-74
2024/01/13 03:46:08;;;;;;;21.83;8.53;;;-0.30;99.90;;;;;;5116908;28;20087;-75
2024/01/13 03:48:34;;;;;;;20.37;8.10;;;-0.30;99.90;;;;;;5117146;28;20023;-75
2024/01/13 03:51:00;;;;;;;19.83;8.20;;;-0.40;99.90;;;;;;5098916;28;20080;-75
2024/01/13 03:53:25;;;;;;;21.10;8.77;;;-0.40;99.90;;;;;;5116897;28;20452;-75
2024/01/13 03:55:51;;;;;;;21.57;8.37;;;-0.30;99.90;;;;;;5098398;28;20020;-75
2024/01/13 03:58:16;;;;;;;25.00;8.80;;;-0.30;99.90;;;;;;5098848;28;20088;-75
2024/01/13 04:00:42;;;;;;;22.80;8.77;;;-0.30;99.90;;;;;;5098412;28;20023;-75
2024/01/13 04:03:07;;;;;;;17.87;7.50;;;-0.30;99.90;;;;;;5117061;28;20495;-75
2024/01/13 04:05:34;;;;;;;21.70;8.20;;;-0.30;99.90;;;;;;5116413;28;20023;-75
2024/01/13 04:08:00;;;;;;;23.13;8.90;;;-0.30;99.90;;;;;;5116833;28;20026;-75
2024/01/13 04:10:26;;;;;;;23.33;9.07;;;-0.30;99.90;;;;;;5098477;28;20020;-75
2024/01/13 04:12:51;;;;;;;20.00;8.50;;;-0.40;99.90;;;;;;5116431;28;20368;-75
2024/01/13 04:15:17;;;;;;;23.67;8.63;;;-0.40;99.90;;;;;;5117068;28;20049;-75
2024/01/13 04:17:43;;;;;;;20.30;7.73;;;-0.30;99.90;;;;;;5116283;28;20487;-75
2024/01/13 04:20:09;;;;;;;19.87;8.60;;;-0.40;99.90;;;;;;5098568;28;20069;-75
2024/01/13 04:22:34;;;;;;;18.53;8.07;;;-0.40;99.90;;;;;;5097871;28;20023;-75
2024/01/13 04:25:00;;;;;;;22.50;8.90;;;-0.40;99.90;;;;;;5098286;28;20055;-75
2024/01/13 04:27:25;;;;;;;21.37;8.90;;;-0.30;99.90;;;;;;5098205;28;20034;-75
2024/01/13 04:29:51;;;;;;;23.67;8.50;;;-0.30;99.90;;;;;;5097802;28;20027;-75
2024/01/13 04:32:16;;;;;;;20.47;8.10;;;-0.30;99.90;;;;;;5098076;28;20046;-75
2024/01/13 04:34:42;;;;;;;22.07;7.97;;;-0.30;99.90;;;;;;5097707;28;20027;-75
2024/01/13 04:37:08;;;;;;;21.93;8.53;;;-0.30;99.90;;;;;;5098131;28;20507;-75
2024/01/13 04:39:33;;;;;;;20.07;8.10;;;-0.30;99.90;;;;;;5115889;28;20455;-76
2024/01/13 04:41:59;;;;;;;26.03;8.83;;;-0.40;99.90;;;;;;5116299;28;20457;-75
2024/01/13 04:44:24;;;;;;;22.83;8.33;;;-0.40;99.90;;;;;;5097911;28;20166;-75
2024/01/13 04:46:50;;;;;;;21.33;8.90;;;-0.40;99.90;;;;;;5097515;28;20027;-75
2024/01/13 04:49:16;;;;;;;20.83;7.63;;;-0.40;99.90;;;;;;5097827;28;20078;-75
2024/01/13 04:51:41;;;;;;;20.83;7.67;;;-0.40;99.90;;;;;;5097151;28;20015;-75
2024/01/13 04:54:07;;;;;;;19.53;7.93;;;-0.30;99.90;;;;;;5115744;28;20016;-75
2024/01/13 04:56:33;;;;;;;22.63;7.77;;;-0.40;99.90;;;;;;5116037;28;20031;-75
2024/01/13 04:58:58;;;;;;;21.47;7.53;;;-0.40;99.90;;;;;;5097317;28;20364;-75
2024/01/13 05:01:24;;;;;;;18.37;7.33;;;-0.40;99.90;;;;;;5097602;28;20019;-75
2024/01/13 05:03:50;;;;;;;20.23;7.20;;;-0.40;99.90;;;;;;5115355;28;20045;-75
2024/01/13 05:06:15;;;;;;;22.20;7.53;;;-0.40;99.90;;;;;;5097465;28;20023;-75
2024/01/13 05:08:42;;;;;;;20.30;7.97;;;-0.40;99.90;;;;;;5097057;28;20066;-75
2024/01/13 05:11:07;;;;;;;20.20;6.97;;;-0.40;99.90;;;;;;5115757;28;20024;-75
2024/01/13 05:13:33;;;;;;;16.53;7.23;;;-0.40;99.90;;;;;;5115572;28;20028;-75
2024/01/13 05:15:59;;;;;;;17.07;6.63;;;-0.40;99.90;;;;;;5096832;28;20080;-75
2024/01/13 05:18:26;;;;;;;14.20;6.17;;;-0.40;99.90;;;;;;5097232;28;20016;-75
2024/01/13 05:20:51;;;;;;;18.67;6.73;;;-0.40;99.90;;;;;;5096761;28;20023;-75
2024/01/13 05:23:17;;;;;;;14.80;6.40;;;-0.40;99.90;;;;;;5097184;28;20026;-75
2024/01/13 05:25:43;;;;;;;18.87;6.57;;;-0.40;99.90;;;;;;5096622;28;20062;-75
2024/01/13 05:28:09;;;;;;;18.00;6.90;;;-0.40;99.90;;;;;;5115319;28;20064;-75
2024/01/13 05:30:35;;;;;;;14.80;6.33;;;-0.50;99.90;;;;;;5096963;28;20024;-75
2024/01/13 05:33:01;;;;;;;16.67;7.20;;;-0.50;99.90;;;;;;5096531;28;20030;-75
2024/01/13 05:35:27;;;;;;;15.77;6.57;;;-0.40;99.90;;;;;;5115153;28;20051;-75
2024/01/13 05:37:53;;;;;;;23.07;7.33;;;-0.50;99.90;;;;;;5114410;28;20069;-75
2024/01/13 05:40:21;;;;;;;20.73;7.63;;;-0.50;99.90;;;;;;5096516;28;20028;-75
2024/01/13 05:42:46;;;;;;;20.83;6.90;;;-0.50;99.90;;;;;;5096437;28;20024;-75
2024/01/13 05:45:12;;;;;;;15.30;7.00;;;-0.50;99.90;;;;;;5115250;28;20106;-75
2024/01/13 05:47:38;;;;;;;14.50;6.60;;;-0.50;99.90;;;;;;5114666;28;20028;-75
2024/01/13 05:50:04;;;;;;;13.57;7.00;;;-0.50;99.90;;;;;;5096665;28;20019;-75
2024/01/13 05:52:30;;;;;;;21.30;7.73;;;-0.50;99.90;;;;;;5096662;28;20020;-75
2024/01/13 05:54:56;;;;;;;20.13;7.10;;;-0.50;99.90;;;;;;5096093;28;20023;-75
2024/01/13 05:57:22;;;;;;;18.80;7.57;;;-0.50;99.90;;;;;;5096572;28;20030;-75
2024/01/13 05:59:47;;;;;;;16.90;7.60;;;-0.50;99.90;;;;;;5095997;28;20023;-75
2024/01/13 06:02:13;;;;;;;19.10;7.80;;;-0.50;99.90;;;;;;5114476;28;20019;-75
2024/01/13 06:04:40;;;;;;;16.40;7.67;;;-0.50;99.90;;;;;;5094902;28;20111;-76
2024/01/13 06:07:05;;;;;;;20.47;7.73;;;-0.50;99.90;;;;;;5096433;28;20068;-75
2024/01/13 06:09:31;;;;;;;16.00;7.47;;;-0.50;99.90;;;;;;5096188;28;20023;-75
2024/01/13 06:11:57;;;;;;;20.03;7.57;;;-0.50;99.90;;;;;;5095657;28;20046;-75
2024/01/13 06:14:23;;;;;;;19.30;7.37;;;-0.50;99.90;;;;;;5096220;28;20030;-75
2024/01/13 06:16:48;;;;;;;16.50;7.63;;;-0.50;99.90;;;;;;5113648;28;20020;-75
2024/01/13 06:19:14;;;;;;;18.97;7.60;;;-0.50;99.90;;;;;;5096246;28;20504;-75
2024/01/13 06:21:43;;;;;;;25.77;8.33;;;-0.50;99.90;;;;;;5095699;28;20106;-76
2024/01/13 06:24:12;;;;;;;21.57;7.80;;;-0.40;99.90;;;;;;5113964;28;20020;-75
2024/01/13 06:26:39;;;;;;;21.37;8.43;;;-0.40;99.90;;;;;;5096131;28;20062;-74
2024/01/13 06:29:05;;;;;;;17.93;7.57;;;-0.50;99.90;;;;;;5096250;28;20057;-75
2024/01/13 06:31:31;;;;;;;20.07;7.80;;;-0.50;99.90;;;;;;5114062;28;20020;-75
2024/01/13 06:33:56;;;;;;;17.57;7.00;;;-0.50;99.90;;;;;;5095398;28;20512;-75
2024/01/13 06:36:22;;;;;;;19.13;7.30;;;-0.50;99.90;;;;;;5114008;28;20067;-75
2024/01/13 06:38:47;;;;;;;16.77;7.20;;;-0.50;99.90;;;;;;5095252;28;20015;-75
2024/01/13 06:41:13;;;;;;;18.80;7.93;;;-0.50;99.90;;;;;;5095404;28;20115;-75
2024/01/13 06:43:39;;;;;;;17.87;7.47;;;-0.50;99.90;;;;;;5095779;28;20055;-74
2024/01/13 06:46:07;;;;;;;16.43;7.07;;;-0.50;99.90;;;;;;5113270;28;20341;-75
2024/01/13 06:48:33;;;;;;;18.17;7.33;;;-0.50;99.90;;;;;;5113772;28;20027;-75
2024/01/13 06:50:58;;;;;;;20.77;7.97;;;-0.50;99.90;;;;;;5095100;28;20015;-75
2024/01/13 06:53:24;;;;;;;15.70;6.90;;;-0.50;99.90;;;;;;5113703;28;20417;-75
2024/01/13 06:55:50;;;;;;;14.23;7.27;;;-0.40;99.90;;;;;;5094933;28;20076;-75
2024/01/13 06:58:16;;;;;;;16.27;6.73;;;-0.40;99.90;;;;;;5095455;28;20080;-75
2024/01/13 07:00:42;;;;;;;16.43;7.63;;;-0.50;99.90;;;;;;5095152;28;20024;-77
2024/01/13 07:03:07;;;;;;;21.10;8.47;;;-0.40;99.90;;;;;;5113858;28;20027;-75
2024/01/13 07:05:33;;;;;;;17.70;7.70;;;-0.40;99.90;;;;;;5095395;28;20023;-75
2024/01/13 07:08:00;;;;;;;21.23;8.00;;;-0.40;99.90;;;;;;5112723;28;20042;-75
2024/01/13 07:10:26;;;;;;;16.77;7.47;;;-0.40;99.90;;;;;;5113279;28;20041;-75
2024/01/13 07:12:52;;;;;;;18.63;8.30;;;-0.40;99.90;;;;;;5113249;28;20035;-75
2024/01/13 07:15:18;;;;;;;21.80;7.50;;;-0.40;99.90;;;;;;5112379;28;20533;-75
2024/01/13 07:17:43;;;;;;;17.13;7.27;;;-0.40;99.90;;;;;;5094583;28;20022;-75
2024/01/13 07:20:09;;;;;;;20.10;8.33;;;-0.40;99.90;;;;;;5095111;28;20023;-75
2024/01/13 07:22:35;;;;;;;24.17;8.90;;;-0.40;99.90;;;;;;5113207;28;20045;-75
2024/01/13 07:25:01;;;;;;;18.87;7.97;;;-0.50;99.90;;;;;;5112834;28;20045;-75
2024/01/13 07:27:27;;;;;;;20.63;8.17;;;-0.40;99.90;;;;;;5094927;28;20020;-75
2024/01/13 07:29:52;;;;;;;17.53;8.37;;;-0.50;99.90;;;;;;5094480;28;20019;-75
2024/01/13 07:32:18;;;;;;;19.43;8.17;;;-0.50;99.90;;;;;;5094988;28;20019;-75
2024/01/13 07:34:44;;;;;;;16.90;8.10;;;-0.50;99.90;;;;;;5094467;28;20030;-77
2024/01/13 07:37:09;;;;;;;21.03;8.77;;;-0.50;99.90;;;;;;5094975;28;20110;-74
2024/01/13 07:39:35;;;;;;;19.80;8.50;;;-0.50;99.90;;;;;;5095039;28;20157;-75
2024/01/13 07:42:00;;;;;;;20.93;8.47;;;-0.50;99.90;;;;;;5093965;28;20043;-75
2024/01/13 07:44:26;;;;;;;19.93;7.87;;;-0.50;99.90;;;;;;5094816;28;20070;-75
2024/01/13 07:46:53;;;;;;;20.23;8.37;;;-0.50;99.90;;;;;;5094534;28;20027;-75
2024/01/13 07:49:18;;;;;;;19.07;7.80;;;-0.50;99.90;;;;;;5113211;28;20488;-75
2024/01/13 07:51:49;;;;;;;19.50;8.63;;;-0.50;99.90;;;;;;5094683;28;20047;-83
2024/01/13 07:54:15;;;;;;;16.50;8.03;;;-0.50;99.90;;;;;;5113248;28;20054;-74
2024/01/13 07:56:41;;;;;;;19.83;9.10;;;-0.50;99.90;;;;;;5094788;28;20054;-75
2024/01/13 07:59:07;;;;;;;21.67;8.67;;;-0.40;99.90;;;;;;5112524;28;20022;-75
2024/01/13 08:01:32;;;;;;;21.13;8.47;;;-0.40;99.90;;;;;;5094888;28;20020;-74
2024/01/13 08:03:58;;;;;;;22.07;8.23;;;-0.40;99.90;;;;;;5094199;28;20444;-75
2024/01/13 08:06:24;;;;;;;20.57;8.80;;;-0.40;99.90;;;;;;5094734;28;20114;-75
2024/01/13 08:08:50;;;;;;;18.03;8.10;;;-0.40;99.90;;;;;;5112651;28;20130;-75
2024/01/13 08:11:15;;;;;;;19.87;8.23;;;-0.40;99.90;;;;;;5095015;28;20024;-76
2024/01/13 08:13:41;;;;;;;25.40;9.23;;;-0.50;99.90;;;;;;5094718;28;20024;-75
2024/01/13 08:16:09;;;;;;;19.03;8.10;;;-0.50;99.90;;;;;;5094187;28;20030;-74
2024/01/13 08:18:36;;;;;;;22.17;8.40;;;-0.40;99.90;;;;;;5094701;28;20032;-75
2024/01/13 08:21:02;;;;;;;21.07;7.97;;;-0.40;99.90;;;;;;5112063;28;20020;-75
2024/01/13 08:23:27;;;;;;;22.13;9.40;;;-0.40;99.90;;;;;;5112761;28;20027;-75
2024/01/13 08:25:53;;;;;;;20.33;7.70;;;-0.40;99.90;;;;;;5112239;28;20031;-75
2024/01/13 08:28:19;;;;;;;21.10;8.40;;;-0.40;99.90;;;;;;5116527;28;20054;-75
2024/01/13 08:30:45;;;;;;;22.87;9.00;;;-0.40;99.90;;;;;;5098159;28;20023;-75
2024/01/13 08:33:11;;;;;;;21.97;8.90;;;-0.40;99.90;;;;;;5115922;28;20011;-75
2024/01/13 08:35:37;;;;;;;23.23;9.03;;;-0.40;99.90;;;;;;5116442;28;20034;-75
2024/01/13 08:38:02;;;;;;;21.53;9.13;;;-0.40;99.90;;;;;;5115857;28;20024;-75
2024/01/13 08:40:28;;;;;;;22.80;9.27;;;-0.40;99.90;;;;;;5097611;28;20035;-75
2024/01/13 08:42:53;;;;;;;21.97;8.97;;;-0.40;99.90;;;;;;5115496;28;20023;-76
2024/01/13 08:45:23;;;;;;;18.93;8.67;;;-0.30;99.90;;;;;;5116134;28;20023;-75
2024/01/13 08:47:48;;;;;;;21.93;8.37;;;-0.30;99.90;;;;;;5097156;28;20028;-75
2024/01/13 08:50:14;;;;;;;22.17;9.10;;;-0.30;99.90;;;;;;5097847;28;20020;-75
2024/01/13 08:52:40;;;;;;;24.73;9.07;;;-0.30;99.90;;;;;;5097828;28;20032;-75
2024/01/13 08:55:06;;;;;;;23.87;8.73;;;-0.30;99.90;;;;;;5097435;28;20387;-76
2024/01/13 08:57:32;;;;;;;19.10;8.20;;;-0.30;99.90;;;;;;5097636;28;20464;-76
2024/01/13 08:59:57;;;;;;;17.37;6.97;;;-0.30;99.90;;;;;;5096902;28;20115;-75
2024/01/13 09:02:23;;;;;;;13.70;6.53;;;-0.20;99.90;;;;;;5115882;28;20030;-75
2024/01/13 09:04:48;;;;;;;18.23;6.90;;;-0.20;99.90;;;;;;5097299;28;20023;-82
2024/01/13 09:07:14;;;;;;;22.97;9.80;;;-0.20;99.90;;;;;;5115512;28;20485;-75
2024/01/13 09:09:39;;;;;;;25.67;9.13;;;-0.20;99.90;;;;;;5115780;28;20056;-75
2024/01/13 09:12:05;;;;;;;24.20;10.10;;;-0.20;99.90;;;;;;5114880;28;20020;-74
2024/01/13 09:14:31;;;;;;;22.50;9.63;;;-0.20;99.90;;;;;;5097334;28;20020;-75
2024/01/13 09:16:57;;;;;;;23.10;9.50;;;-0.20;99.90;;;;;;5096901;28;20452;-76
2024/01/13 09:19:23;;;;;;;21.33;8.33;;;-0.20;99.90;;;;;;5097429;28;20055;-75
2024/01/13 09:21:48;;;;;;;20.80;9.47;;;-0.20;99.90;;;;;;5097164;28;20024;-75
2024/01/13 09:24:16;;;;;;;23.40;9.70;;;-0.20;99.90;;;;;;5096773;28;20020;-75
2024/01/13 09:26:43;;;;;;;25.37;10.00;;;-0.20;99.90;;;;;;5115059;28;20383;-75
2024/01/13 09:29:09;;;;;;;25.63;9.23;;;-0.20;99.90;;;;;;5096560;28;20027;-75
2024/01/13 09:31:35;;;;;;;25.77;9.83;;;-0.10;99.90;;;;;;5115360;28;20020;-75
2024/01/13 09:34:00;;;;;;;23.07;9.00;;;-0.10;99.90;;;;;;5114578;28;20019;-75
2024/01/13 09:36:26;;;;;;;23.97;9.67;;;-0.10;99.90;;;;;;5115248;28;20027;-75
2024/01/13 09:38:51;;;;;;;31.47;10.43;;;-0.20;99.90;;;;;;5113786;28;20356;-75
2024/01/13 09:41:17;;;;;;;28.83;10.27;;;-0.10;99.90;;;;;;5115087;28;20067;-75
2024/01/13 09:44:02;;;;;;;26.87;10.23;;;-0.10;99.90;;;;;;5096926;28;20141;-75
2024/01/13 09:46:29;;;;;;;27.57;10.43;;;-0.10;99.90;;;;;;5096670;28;20016;-75
2024/01/13 09:48:56;;;;;;;30.93;11.00;;;-0.10;99.90;;;;;;5096284;28;20020;-75
2024/01/13 09:51:22;;;;;;;30.23;11.07;;;-0.10;99.90;;;;;;5096771;28;20015;-75
2024/01/13 09:53:54;;;;;;;27.63;10.00;;;-0.10;99.90;;;;;;5096568;28;20453;-75
2024/01/13 09:56:28;;;;;;;27.58;9.63;;;-0.10;99.90;;;;;;5114871;28;20027;-75
2024/01/13 09:58:53;;;;;;;27.13;10.73;;;-0.10;99.90;;;;;;5096256;28;20124;-76
2024/01/13 10:01:19;;;;;;;29.90;12.00;;;-0.10;99.90;;;;;;5114825;28;20456;-75
2024/01/13 10:03:45;;;;;;;31.03;11.73;;;-0.10;99.90;;;;;;5096584;28;20028;-74
2024/01/13 10:06:12;;;;;;;36.33;11.93;;;-0.10;99.90;;;;;;5114177;28;20024;-75
2024/01/13 10:08:38;;;;;;;30.83;12.27;;;-0.10;99.90;;;;;;5114643;28;20027;-75
2024/01/13 10:11:03;;;;;;;34.27;12.37;;;-0.10;99.90;;;;;;5095995;28;20034;-75
2024/01/13 10:13:32;;;;;;;38.77;12.80;;;-0.10;99.90;;;;;;5114541;28;20015;-75
2024/01/13 10:15:57;;;;;;;29.43;12.03;;;-0.10;99.90;;;;;;5095745;28;20520;-75
2024/01/13 10:18:24;;;;;;;30.40;10.13;;;-0.10;99.90;;;;;;5096104;28;20024;-75
2024/01/13 10:20:50;;;;;;;28.47;11.63;;;-0.10;99.90;;;;;;5114375;28;20055;-74
2024/01/13 10:23:16;;;;;;;36.60;12.77;;;0.00;99.90;;;;;;5095519;28;20016;-75
2024/01/13 10:25:42;;;;;;;31.07;11.07;;;0.00;99.90;;;;;;5114245;28;20109;-75
2024/01/13 10:28:08;;;;;;;25.00;9.50;;;0.00;99.90;;;;;;5095686;28;20453;-75
2024/01/13 10:30:34;;;;;;;31.13;10.20;;;-0.10;99.90;;;;;;5095997;28;20023;-75
2024/01/13 10:33:00;;;;;;;26.27;9.67;;;-0.10;99.90;;;;;;5095388;28;20024;-75
2024/01/13 10:35:29;;;;;;;26.13;9.60;;;-0.10;99.90;;;;;;5114103;28;20157;-74
2024/01/13 10:37:58;;;;;;;29.43;9.77;;;-0.10;99.90;;;;;;5095339;28;20072;-79
2024/01/13 10:40:24;;;;;;;26.00;10.77;;;-0.10;99.90;;;;;;5113722;28;20107;-75
2024/01/13 10:42:55;;;;;;;31.70;10.90;;;-0.10;99.90;;;;;;5095780;28;20031;-75
2024/01/13 10:45:25;;;;;;;24.98;9.45;;;-0.10;99.90;;;;;;5095710;28;20076;-75
2024/01/13 10:47:52;;;;;;;26.97;9.97;;;-0.20;99.90;;;;;;5113852;28;20027;-75
2024/01/13 10:50:19;;;;;;;26.90;9.87;;;-0.20;99.90;;;;;;5094895;28;20445;-75
2024/01/13 10:53:15;;;;;;;23.87;8.97;;;-0.20;99.90;;;;;;5113787;28;20026;-75
2024/01/13 10:55:42;;;;;;;26.43;9.73;;;-0.20;99.90;;;;;;5113866;28;20034;-75
2024/01/13 10:58:10;;;;;;;27.77;10.03;;;-0.30;99.90;;;;;;5094961;28;20167;-75
2024/01/13 11:00:36;;;;;;;23.50;9.37;;;-0.20;99.90;;;;;;5095441;28;20487;-75
2024/01/13 11:03:04;;;;;;;25.07;9.40;;;-0.20;99.90;;;;;;5094859;28;20020;-75
2024/01/13 11:05:30;;;;;;;22.03;8.60;;;-0.20;99.90;;;;;;5095464;28;20035;-75
2024/01/13 11:07:56;;;;;;;17.83;7.30;;;-0.20;99.90;;;;;;5095244;28;20059;-78
2024/01/13 11:10:33;;;;;;;25.10;9.17;;;-0.30;99.90;;;;;;5113307;28;20031;-75
2024/01/13 11:13:06;;;;;;;19.00;7.87;;;-0.30;99.90;;;;;;5113180;28;20024;-75
2024/01/13 11:15:48;;;;;;;20.73;7.53;;;-0.30;99.90;;;;;;5095256;28;20372;-75
2024/01/13 11:18:17;;;;;;;19.65;7.85;;;-0.30;99.90;;;;;;5113284;28;20330;-75
2024/01/13 11:21:02;;;;;;;17.30;7.93;;;-0.30;99.90;;;;;;5113506;28;20081;-75
2024/01/13 11:23:28;;;;;;;18.40;7.53;;;-0.30;99.90;;;;;;5095254;28;20020;-74
2024/01/13 11:25:53;;;;;;;17.13;6.87;;;-0.30;99.90;;;;;;5113257;28;20020;-74
2024/01/13 11:28:21;;;;;;;17.37;7.13;;;-0.30;99.90;;;;;;5094716;28;20372;-74
2024/01/13 11:30:46;;;;;;;18.97;6.77;;;-0.30;99.90;;;;;;5095182;28;20028;-75
2024/01/13 11:33:13;;;;;;;20.23;7.83;;;-0.30;99.90;;;;;;5112837;28;20677;-75
2024/01/13 11:35:39;;;;;;;18.07;6.53;;;-0.40;99.90;;;;;;5113265;28;20085;-74
2024/01/13 11:38:08;;;;;;;19.57;6.73;;;-0.30;99.90;;;;;;5112973;28;20471;-75
2024/01/13 11:40:35;;;;;;;18.03;6.30;;;-0.40;99.90;;;;;;5094697;28;20044;-75
2024/01/13 11:43:02;;;;;;;20.30;7.13;;;-0.50;99.90;;;;;;5112856;28;20028;-75
2024/01/13 11:45:40;;;;;;;18.07;6.93;;;-0.40;99.90;;;;;;5094855;28;20024;-75
2024/01/13 11:48:30;;;;;;;17.17;6.80;;;-0.40;99.90;;;;;;5094578;28;20131;-75
2024/01/13 11:50:56;;;;;;;17.63;7.53;;;-0.40;99.90;;;;;;5095010;28;20015;-74
2024/01/13 11:53:35;;;;;;;20.77;7.83;;;-0.30;99.90;;;;;;5094445;28;20364;-75
2024/01/13 11:56:01;;;;;;;19.83;7.23;;;-0.40;99.90;;;;;;5112582;28;20100;-75
2024/01/13 11:58:27;;;;;;;19.53;8.43;;;-0.40;99.90;;;;;;5095007;28;20024;-75
2024/01/13 12:00:53;;;;;;;22.83;8.90;;;-0.40;99.90;;;;;;5094826;28;20460;-74
2024/01/13 12:03:18;;;;;;;23.00;8.20;;;-0.40;99.90;;;;;;5098326;28;20452;-74
2024/01/13 12:05:44;;;;;;;26.60;8.63;;;-0.40;99.90;;;;;;5098835;28;20119;-73
2024/01/13 12:08:10;;;;;;;23.80;8.80;;;-0.50;99.90;;;;;;5098155;28;20059;-74
2024/01/13 12:10:42;;;;;;;25.97;8.80;;;-0.50;99.90;;;;;;5116871;28;20400;-75
2024/01/13 12:13:18;;;;;;;23.90;9.33;;;-0.50;99.90;;;;;;5098144;28;20019;-75
2024/01/13 12:15:47;;;;;;;22.47;8.73;;;-0.50;99.90;;;;;;5116865;28;20028;-74
2024/01/13 12:18:25;;;;;;;24.30;9.33;;;-0.50;99.90;;;;;;5097971;28;20080;-75
2024/01/13 12:21:12;;;;;;;27.97;9.30;;;-0.50;99.90;;;;;;5116704;28;20065;-74
2024/01/13 12:23:38;;;;;;;23.27;9.53;;;-0.60;99.90;;;;;;5098277;28;20456;-75
2024/01/13 12:26:03;;;;;;;26.20;10.63;;;-0.50;99.90;;;;;;5116070;28;20026;-75
2024/01/13 12:28:29;;;;;;;29.23;9.83;;;-0.60;99.90;;;;;;5116579;28;20098;-75
2024/01/13 12:30:55;;;;;;;25.40;8.97;;;-0.60;99.90;;;;;;5098202;28;20019;-75
2024/01/13 12:33:23;;;;;;;20.07;8.40;;;-0.60;99.90;;;;;;5115996;28;20527;-75
2024/01/13 12:35:57;;;;;;;28.13;8.87;;;-0.60;99.90;;;;;;5116410;28;20024;-75